sensor_id;sensor_type;location;lat;lon;timestamp;pressure;altitude;pressure_sealevel;temperature;humidity
12178;BME280;6152;48.728;9.256;2023-02-28T00:00:25;97710.91;;;-2.40;93.85
12178;BME280;6152;48.728;9.256;2023-02-28T00:02:51;97710.91;;;-2.40;94.39
12178;BME280;6152;48.728;9.256;2023-02-28T00:05:21;97717.72;;;-2.48;97.13
12178;BME280;6152;48.728;9.256;2023-02-28T00:07:48;97708.38;;;-2.52;97.75
12178;BME280;6152;48.728;9.256;2023-02-28T00:10:24;97711.75;;;-2.50;96.98
12178;BME280;6152;48.728;9.256;2023-02-28T00:12:51;97704.97;;;-2.48;97.02
12178;BME280;6152;48.728;9.256;2023-02-28T00:15:18;97710.03;;;-2.51;97.63
12178;BME280;6152;48.728;9.256;2023-02-28T00:17:44;97708.38;;;-2.52;98.39
12178;BME280;6152;48.728;9.256;2023-02-28T00:20:11;97709.22;;;-2.60;98.38
12178;BME280;6152;48.728;9.256;2023-02-28T00:22:39;97715.97;;;-2.65;99.92
12178;BME280;6152;48.728;9.256;2023-02-28T00:25:07;97712.59;;;-2.70;99.73
12178;BME280;6152;48.728;9.256;2023-02-28T00:27:34;97706.63;;;-2.78;100.00
12178;BME280;6152;48.728;9.256;2023-02-28T00:30:01;97710.91;;;-2.80;100.00
12178;BME280;6152;48.728;9.256;2023-02-28T00:32:27;97706.66;;;-2.76;100.00
12178;BME280;6152;48.728;9.256;2023-02-28T00:34:53;97709.19;;;-2.84;100.00
12178;BME280;6152;48.728;9.256;2023-02-28T00:37:19;97705.75;;;-2.86;100.00
12178;BME280;6152;48.728;9.256;2023-02-28T00:39:46;97705.81;;;-2.80;100.00
12178;BME280;6152;48.728;9.256;2023-02-28T00:42:12;97703.25;;;-2.78;100.00
12178;BME280;6152;48.728;9.256;2023-02-28T00:44:38;97717.66;;;-2.85;100.00
12178;BME280;6152;48.728;9.256;2023-02-28T00:47:04;97714.28;;;-2.87;100.00
12178;BME280;6152;48.728;9.256;2023-02-28T00:49:30;97720.22;;;-2.83;100.00
12178;BME280;6152;48.728;9.256;2023-02-28T00:51:57;97714.28;;;-2.81;100.00
12178;BME280;6152;48.728;9.256;2023-02-28T00:54:24;97705.81;;;-2.83;100.00
12178;BME280;6152;48.728;9.256;2023-02-28T00:56:50;97704.09;;;-2.81;100.00
12178;BME280;6152;48.728;9.256;2023-02-28T00:59:17;97705.81;;;-2.83;100.00
12178;BME280;6152;48.728;9.256;2023-02-28T01:01:45;97710.03;;;-2.85;100.00
12178;BME280;6152;48.728;9.256;2023-02-28T01:04:12;97704.94;;;-2.88;100.00
12178;BME280;6152;48.728;9.256;2023-02-28T01:06:38;97707.47;;;-2.85;100.00
12178;BME280;6152;48.728;9.256;2023-02-28T01:09:06;97708.34;;;-2.81;100.00
12178;BME280;6152;48.728;9.256;2023-02-28T01:11:32;97705.81;;;-2.83;100.00
12178;BME280;6152;48.728;9.256;2023-02-28T01:13:59;97700.72;;;-2.77;100.00
12178;BME280;6152;48.728;9.256;2023-02-28T01:16:27;97702.38;;;-2.76;100.00
12178;BME280;6152;48.728;9.256;2023-02-28T01:18:53;97701.53;;;-2.78;100.00
12178;BME280;6152;48.728;9.256;2023-02-28T01:21:20;97702.41;;;-2.73;100.00
12178;BME280;6152;48.728;9.256;2023-02-28T01:23:48;97697.28;;;-2.79;100.00
12178;BME280;6152;48.728;9.256;2023-02-28T01:26:16;97704.94;;;-2.86;100.00
12178;BME280;6152;48.728;9.256;2023-02-28T01:28:43;97695.59;;;-2.86;100.00
12178;BME280;6152;48.728;9.256;2023-02-28T01:31:10;97699.00;;;-2.79;100.00
12178;BME280;6152;48.728;9.256;2023-02-28T01:33:36;97703.22;;;-2.86;100.00
12178;BME280;6152;48.728;9.256;2023-02-28T01:36:06;97693.91;;;-2.87;100.00
12178;BME280;6152;48.728;9.256;2023-02-28T01:38:33;97698.13;;;-2.89;100.00
12178;BME280;6152;48.728;9.256;2023-02-28T01:40:59;97692.19;;;-2.94;100.00
12178;BME280;6152;48.728;9.256;2023-02-28T01:43:28;97703.22;;;-2.89;100.00
12178;BME280;6152;48.728;9.256;2023-02-28T01:45:56;97704.06;;;-2.99;100.00
12178;BME280;6152;48.728;9.256;2023-02-28T01:48:32;97691.34;;;-2.97;100.00
12178;BME280;6152;48.728;9.256;2023-02-28T01:51:08;97689.66;;;-3.00;100.00
12178;BME280;6152;48.728;9.256;2023-02-28T01:53:44;97688.78;;;-2.96;100.00
12178;BME280;6152;48.728;9.256;2023-02-28T01:56:15;97684.56;;;-2.83;100.00
12178;BME280;6152;48.728;9.256;2023-02-28T01:58:48;97681.19;;;-2.90;100.00
12178;BME280;6152;48.728;9.256;2023-02-28T02:01:14;97672.66;;;-2.89;100.00
12178;BME280;6152;48.728;9.256;2023-02-28T02:03:49;97671.81;;;-2.85;100.00
12178;BME280;6152;48.728;9.256;2023-02-28T02:06:21;97672.69;;;-2.90;100.00
12178;BME280;6152;48.728;9.256;2023-02-28T02:08:48;97672.69;;;-2.81;100.00
12178;BME280;6152;48.728;9.256;2023-02-28T02:11:18;97672.66;;;-2.86;100.00
12178;BME280;6152;48.728;9.256;2023-02-28T02:17:18;97673.53;;;-2.81;100.00
12178;BME280;6152;48.728;9.256;2023-02-28T02:24:48;97669.28;;;-2.85;100.00
12178;BME280;6152;48.728;9.256;2023-02-28T02:27:26;97665.88;;;-2.93;100.00
12178;BME280;6152;48.728;9.256;2023-02-28T02:35:31;97654.88;;;-2.83;100.00
12178;BME280;6152;48.728;9.256;2023-02-28T02:40:58;97654.00;;;-2.85;100.00
12178;BME280;6152;48.728;9.256;2023-02-28T02:43:37;97655.72;;;-2.84;100.00
12178;BME280;6152;48.728;9.256;2023-02-28T02:46:13;97659.97;;;-2.83;100.00
12178;BME280;6152;48.728;9.256;2023-02-28T02:48:42;97657.41;;;-2.75;100.00
12178;BME280;6152;48.728;9.256;2023-02-28T02:51:14;97657.41;;;-2.63;100.00
12178;BME280;6152;48.728;9.256;2023-02-28T02:53:51;97659.09;;;-2.58;100.00
12178;BME280;6152;48.728;9.256;2023-02-28T02:56:21;97654.00;;;-2.61;100.00
12178;BME280;6152;48.728;9.256;2023-02-28T02:58:50;97662.50;;;-2.62;100.00
12178;BME280;6152;48.728;9.256;2023-02-28T03:01:24;97659.97;;;-2.59;100.00
12178;BME280;6152;48.728;9.256;2023-02-28T03:04:09;97667.59;;;-2.62;100.00
12178;BME280;6152;48.728;9.256;2023-02-28T03:06:36;97659.97;;;-2.56;100.00
12178;BME280;6152;48.728;9.256;2023-02-28T03:09:02;97659.97;;;-2.56;100.00
12178;BME280;6152;48.728;9.256;2023-02-28T03:11:30;97659.97;;;-2.66;100.00
12178;BME280;6152;48.728;9.256;2023-02-28T03:14:27;97669.28;;;-2.74;100.00
12178;BME280;6152;48.728;9.256;2023-02-28T03:20:04;97669.28;;;-2.77;100.00
12178;BME280;6152;48.728;9.256;2023-02-28T03:23:16;97666.75;;;-2.73;100.00
12178;BME280;6152;48.728;9.256;2023-02-28T03:25:52;97671.84;;;-2.73;100.00
12178;BME280;6152;48.728;9.256;2023-02-28T03:31:19;97667.59;;;-2.63;100.00
12178;BME280;6152;48.728;9.256;2023-02-28T03:34:08;97663.34;;;-2.61;100.00
12178;BME280;6152;48.728;9.256;2023-02-28T03:36:47;97669.31;;;-2.62;100.00
12178;BME280;6152;48.728;9.256;2023-02-28T03:39:19;97653.16;;;-2.57;100.00
12178;BME280;6152;48.728;9.256;2023-02-28T03:42:02;97652.31;;;-2.59;100.00
12178;BME280;6152;48.728;9.256;2023-02-28T03:44:41;97657.41;;;-2.56;100.00
12178;BME280;6152;48.728;9.256;2023-02-28T03:47:12;97658.25;;;-2.60;100.00
12178;BME280;6152;48.728;9.256;2023-02-28T03:49:45;97661.63;;;-2.55;100.00
12178;BME280;6152;48.728;9.256;2023-02-28T03:52:13;97654.88;;;-2.56;100.00
12178;BME280;6152;48.728;9.256;2023-02-28T03:54:50;97662.50;;;-2.42;100.00
12178;BME280;6152;48.728;9.256;2023-02-28T04:00:20;97659.09;;;-2.44;100.00
12178;BME280;6152;48.728;9.256;2023-02-28T04:02:47;97660.78;;;-2.43;100.00
12178;BME280;6152;48.728;9.256;2023-02-28T04:05:21;97659.09;;;-2.39;100.00
12178;BME280;6152;48.728;9.256;2023-02-28T04:07:48;97664.19;;;-2.44;100.00
12178;BME280;6152;48.728;9.256;2023-02-28T04:10:15;97663.34;;;-2.38;100.00
12178;BME280;6152;48.728;9.256;2023-02-28T04:12:42;97665.03;;;-2.37;100.00
12178;BME280;6152;48.728;9.256;2023-02-28T04:15:08;97666.72;;;-2.33;100.00
12178;BME280;6152;48.728;9.256;2023-02-28T04:17:36;97670.09;;;-2.34;100.00
12178;BME280;6152;48.728;9.256;2023-02-28T04:20:03;97665.03;;;-2.31;100.00
12178;BME280;6152;48.728;9.256;2023-02-28T04:22:35;97670.13;;;-2.37;100.00
12178;BME280;6152;48.728;9.256;2023-02-28T04:25:01;97668.44;;;-2.35;100.00
12178;BME280;6152;48.728;9.256;2023-02-28T04:27:27;97669.25;;;-2.38;100.00
12178;BME280;6152;48.728;9.256;2023-02-28T04:29:53;97666.69;;;-2.27;100.00
12178;BME280;6152;48.728;9.256;2023-02-28T04:32:19;97668.41;;;-2.23;100.00
12178;BME280;6152;48.728;9.256;2023-02-28T04:34:45;97665.03;;;-2.28;100.00
12178;BME280;6152;48.728;9.256;2023-02-28T04:37:12;97663.31;;;-2.23;100.00
12178;BME280;6152;48.728;9.256;2023-02-28T04:39:38;97666.72;;;-2.21;100.00
12178;BME280;6152;48.728;9.256;2023-02-28T04:42:04;97665.03;;;-2.25;100.00
12178;BME280;6152;48.728;9.256;2023-02-28T04:44:31;97661.63;;;-2.33;100.00
12178;BME280;6152;48.728;9.256;2023-02-28T04:46:57;97663.34;;;-2.35;100.00
12178;BME280;6152;48.728;9.256;2023-02-28T04:49:23;97667.56;;;-2.33;100.00
12178;BME280;6152;48.728;9.256;2023-02-28T04:51:49;97663.31;;;-2.23;100.00
12178;BME280;6152;48.728;9.256;2023-02-28T04:54:16;97665.00;;;-2.24;100.00
12178;BME280;6152;48.728;9.256;2023-02-28T04:56:43;97665.88;;;-2.28;100.00
12178;BME280;6152;48.728;9.256;2023-02-28T04:59:09;97665.03;;;-2.31;100.00
12178;BME280;6152;48.728;9.256;2023-02-28T05:01:36;97667.56;;;-2.25;100.00
12178;BME280;6152;48.728;9.256;2023-02-28T05:04:04;97664.16;;;-2.30;100.00
12178;BME280;6152;48.728;9.256;2023-02-28T05:06:32;97667.56;;;-2.30;100.00
12178;BME280;6152;48.728;9.256;2023-02-28T05:08:58;97670.97;;;-2.22;100.00
12178;BME280;6152;48.728;9.256;2023-02-28T05:11:30;97663.31;;;-2.26;100.00
12178;BME280;6152;48.728;9.256;2023-02-28T05:14:03;97661.63;;;-2.24;100.00
12178;BME280;6152;48.728;9.256;2023-02-28T05:16:31;97656.50;;;-2.15;100.00
12178;BME280;6152;48.728;9.256;2023-02-28T05:18:57;97658.19;;;-2.13;100.00
12178;BME280;6152;48.728;9.256;2023-02-28T05:21:27;97664.16;;;-2.21;100.00
12178;BME280;6152;48.728;9.256;2023-02-28T05:23:54;97665.84;;;-2.20;100.00
12178;BME280;6152;48.728;9.256;2023-02-28T05:26:20;97673.47;;;-2.17;100.00
12178;BME280;6152;48.728;9.256;2023-02-28T05:28:47;97670.94;;;-2.14;100.00
12178;BME280;6152;48.728;9.256;2023-02-28T05:31:13;97677.75;;;-2.15;100.00
12178;BME280;6152;48.728;9.256;2023-02-28T05:33:39;97676.06;;;-2.14;100.00
12178;BME280;6152;48.728;9.256;2023-02-28T05:36:06;97680.28;;;-2.13;100.00
12178;BME280;6152;48.728;9.256;2023-02-28T05:38:33;97676.88;;;-2.17;100.00
12178;BME280;6152;48.728;9.256;2023-02-28T05:40:59;97665.00;;;-2.19;100.00
12178;BME280;6152;48.728;9.256;2023-02-28T05:43:25;97671.78;;;-2.12;100.00
12178;BME280;6152;48.728;9.256;2023-02-28T05:45:51;97674.34;;;-2.08;100.00
12178;BME280;6152;48.728;9.256;2023-02-28T05:48:17;97681.16;;;-2.14;100.00
12178;BME280;6152;48.728;9.256;2023-02-28T05:50:44;97685.38;;;-2.10;100.00
12178;BME280;6152;48.728;9.256;2023-02-28T05:53:11;97686.25;;;-2.14;100.00
12178;BME280;6152;48.728;9.256;2023-02-28T05:55:37;97684.53;;;-2.12;100.00
12178;BME280;6152;48.728;9.256;2023-02-28T05:58:04;97691.34;;;-2.03;100.00
12178;BME280;6152;48.728;9.256;2023-02-28T06:00:30;97681.13;;;-2.02;100.00
12178;BME280;6152;48.728;9.256;2023-02-28T06:02:56;97679.44;;;-2.11;100.00
12178;BME280;6152;48.728;9.256;2023-02-28T06:05:25;97676.84;;;-2.03;100.00
12178;BME280;6152;48.728;9.256;2023-02-28T06:07:51;97678.56;;;-1.94;100.00
12178;BME280;6152;48.728;9.256;2023-02-28T06:10:17;97688.75;;;-1.96;100.00
12178;BME280;6152;48.728;9.256;2023-02-28T06:12:44;97689.59;;;-1.91;100.00
12178;BME280;6152;48.728;9.256;2023-02-28T06:15:15;97692.16;;;-2.03;100.00
12178;BME280;6152;48.728;9.256;2023-02-28T06:17:42;97689.63;;;-2.00;100.00
12178;BME280;6152;48.728;9.256;2023-02-28T06:20:10;97688.75;;;-1.96;100.00
12178;BME280;6152;48.728;9.256;2023-02-28T06:22:39;97688.72;;;-1.93;100.00
12178;BME280;6152;48.728;9.256;2023-02-28T06:25:16;97690.47;;;-1.98;100.00
12178;BME280;6152;48.728;9.256;2023-02-28T06:27:48;97694.72;;;-2.00;100.00
12178;BME280;6152;48.728;9.256;2023-02-28T06:30:15;97700.66;;;-1.95;100.00
12178;BME280;6152;48.728;9.256;2023-02-28T06:32:41;97710.81;;;-1.89;100.00
12178;BME280;6152;48.728;9.256;2023-02-28T06:35:20;97710.84;;;-1.92;100.00
12178;BME280;6152;48.728;9.256;2023-02-28T06:38:06;97710.84;;;-1.92;100.00
12178;BME280;6152;48.728;9.256;2023-02-28T06:40:32;97712.53;;;-1.86;100.00
12178;BME280;6152;48.728;9.256;2023-02-28T06:43:00;97720.19;;;-1.89;100.00
12178;BME280;6152;48.728;9.256;2023-02-28T06:45:27;97711.69;;;-1.93;100.00
12178;BME280;6152;48.728;9.256;2023-02-28T06:47:53;97716.81;;;-1.90;100.00
12178;BME280;6152;48.728;9.256;2023-02-28T06:50:19;97708.28;;;-1.87;100.00
12178;BME280;6152;48.728;9.256;2023-02-28T06:52:46;97720.16;;;-1.82;100.00
12178;BME280;6152;48.728;9.256;2023-02-28T06:55:12;97719.28;;;-1.75;100.00
12178;BME280;6152;48.728;9.256;2023-02-28T06:57:39;97719.31;;;-1.78;100.00
12178;BME280;6152;48.728;9.256;2023-02-28T07:00:09;97722.69;;;-1.71;100.00
12178;BME280;6152;48.728;9.256;2023-02-28T07:02:36;97714.16;;;-1.69;100.00
12178;BME280;6152;48.728;9.256;2023-02-28T07:05:04;97725.22;;;-1.61;100.00
12178;BME280;6152;48.728;9.256;2023-02-28T07:07:30;97730.31;;;-1.59;100.00
12178;BME280;6152;48.728;9.256;2023-02-28T07:09:56;97726.06;;;-1.57;100.00
12178;BME280;6152;48.728;9.256;2023-02-28T07:12:22;97734.56;;;-1.58;100.00
12178;BME280;6152;48.728;9.256;2023-02-28T07:14:49;97734.53;;;-1.47;100.00
12178;BME280;6152;48.728;9.256;2023-02-28T07:17:15;97733.66;;;-1.46;100.00
12178;BME280;6152;48.728;9.256;2023-02-28T07:19:41;97732.81;;;-1.42;100.00
12178;BME280;6152;48.728;9.256;2023-02-28T07:22:07;97731.13;;;-1.46;100.00
12178;BME280;6152;48.728;9.256;2023-02-28T07:24:33;97734.53;;;-1.49;100.00
12178;BME280;6152;48.728;9.256;2023-02-28T07:27:00;97732.81;;;-1.47;100.00
12178;BME280;6152;48.728;9.256;2023-02-28T07:29:27;97735.38;;;-1.47;100.00
12178;BME280;6152;48.728;9.256;2023-02-28T07:31:53;97739.56;;;-1.32;100.00
12178;BME280;6152;48.728;9.256;2023-02-28T07:34:23;97732.78;;;-1.39;100.00
12178;BME280;6152;48.728;9.256;2023-02-28T07:36:49;97732.78;;;-1.39;100.00
12178;BME280;6152;48.728;9.256;2023-02-28T07:39:19;97733.66;;;-1.40;100.00
12178;BME280;6152;48.728;9.256;2023-02-28T07:41:46;97730.25;;;-1.39;100.00
12178;BME280;6152;48.728;9.256;2023-02-28T07:44:12;97739.59;;;-1.35;100.00
12178;BME280;6152;48.728;9.256;2023-02-28T07:46:38;97744.63;;;-1.23;100.00
12178;BME280;6152;48.728;9.256;2023-02-28T07:49:05;97738.69;;;-1.24;100.00
12178;BME280;6152;48.728;9.256;2023-02-28T07:51:31;97737.84;;;-1.24;100.00
12178;BME280;6152;48.728;9.256;2023-02-28T07:53:57;97744.63;;;-1.19;100.00
12178;BME280;6152;48.728;9.256;2023-02-28T07:56:24;97747.16;;;-1.14;100.00
12178;BME280;6152;48.728;9.256;2023-02-28T07:58:50;97745.44;;;-1.09;100.00
12178;BME280;6152;48.728;9.256;2023-02-28T08:01:16;97742.03;;;-1.11;100.00
12178;BME280;6152;48.728;9.256;2023-02-28T08:03:43;97746.25;;;-1.04;100.00
12178;BME280;6152;48.728;9.256;2023-02-28T08:06:19;97751.41;;;-1.07;100.00
12178;BME280;6152;48.728;9.256;2023-02-28T08:08:46;97751.34;;;-0.98;100.00
12178;BME280;6152;48.728;9.256;2023-02-28T08:11:12;97756.50;;;-1.07;100.00
12178;BME280;6152;48.728;9.256;2023-02-28T08:13:39;97759.84;;;-0.99;100.00
12178;BME280;6152;48.728;9.256;2023-02-28T08:16:05;97759.81;;;-0.96;100.00
12178;BME280;6152;48.728;9.256;2023-02-28T08:18:33;97757.25;;;-0.87;100.00
12178;BME280;6152;48.728;9.256;2023-02-28T08:20:59;97757.25;;;-0.90;100.00
12178;BME280;6152;48.728;9.256;2023-02-28T08:23:25;97753.81;;;-0.84;100.00
12178;BME280;6152;48.728;9.256;2023-02-28T08:25:55;97750.34;;;-0.70;100.00
12178;BME280;6152;48.728;9.256;2023-02-28T08:28:22;97750.34;;;-0.76;100.00
12178;BME280;6152;48.728;9.256;2023-02-28T08:30:48;97758.88;;;-0.77;100.00
12178;BME280;6152;48.728;9.256;2023-02-28T08:33:14;97750.28;;;-0.65;100.00
12178;BME280;6152;48.728;9.256;2023-02-28T08:35:40;97756.25;;;-0.63;100.00
12178;BME280;6152;48.728;9.256;2023-02-28T08:38:07;97756.22;;;-0.56;100.00
12178;BME280;6152;48.728;9.256;2023-02-28T08:40:33;97757.84;;;-0.52;100.00
12178;BME280;6152;48.728;9.256;2023-02-28T08:42:59;97758.72;;;-0.51;100.00
12178;BME280;6152;48.728;9.256;2023-02-28T08:45:25;97759.50;;;-0.38;100.00
12178;BME280;6152;48.728;9.256;2023-02-28T08:47:51;97762.03;;;-0.35;100.00
12178;BME280;6152;48.728;9.256;2023-02-28T08:50:19;97759.41;;;-0.29;100.00
12178;BME280;6152;48.728;9.256;2023-02-28T08:52:45;97767.88;;;-0.21;100.00
12178;BME280;6152;48.728;9.256;2023-02-28T08:55:11;97767.84;;;-0.15;100.00
12178;BME280;6152;48.728;9.256;2023-02-28T08:57:37;97764.53;;;-0.29;100.00
12178;BME280;6152;48.728;9.256;2023-02-28T09:00:04;97768.91;;;-0.46;100.00
12178;BME280;6152;48.728;9.256;2023-02-28T09:02:31;97766.25;;;-0.34;100.00
12178;BME280;6152;48.728;9.256;2023-02-28T09:04:57;97763.66;;;-0.27;100.00
12178;BME280;6152;48.728;9.256;2023-02-28T09:07:24;97767.91;;;-0.27;100.00
12178;BME280;6152;48.728;9.256;2023-02-28T09:09:50;97774.78;;;-0.32;100.00
12178;BME280;6152;48.728;9.256;2023-02-28T09:12:24;97772.19;;;-0.25;100.00
12178;BME280;6152;48.728;9.256;2023-02-28T09:14:51;97769.53;;;-0.14;100.00
12178;BME280;6152;48.728;9.256;2023-02-28T09:17:17;97777.16;;;-0.08;99.97
12178;BME280;6152;48.728;9.256;2023-02-28T09:19:44;97771.28;;;-0.22;100.00
12178;BME280;6152;48.728;9.256;2023-02-28T09:22:11;97777.22;;;-0.19;100.00
12178;BME280;6152;48.728;9.256;2023-02-28T09:24:37;97781.41;;;-0.07;100.00
12178;BME280;6152;48.728;9.256;2023-02-28T09:27:04;97775.34;;;0.03;99.73
12178;BME280;6152;48.728;9.256;2023-02-28T09:29:32;97786.50;;;-0.04;99.52
12178;BME280;6152;48.728;9.256;2023-02-28T09:31:58;97784.03;;;-0.15;99.93
12178;BME280;6152;48.728;9.256;2023-02-28T09:34:26;97789.09;;;-0.09;100.00
12178;BME280;6152;48.728;9.256;2023-02-28T09:36:52;97788.97;;;0.04;100.00
12178;BME280;6152;48.728;9.256;2023-02-28T09:39:21;97786.44;;;0.02;98.88
12178;BME280;6152;48.728;9.256;2023-02-28T09:41:51;97782.81;;;0.24;98.38
12178;BME280;6152;48.728;9.256;2023-02-28T09:49:55;97795.94;;;0.78;92.27
12178;BME280;6152;48.728;9.256;2023-02-28T09:52:30;97794.94;;;0.92;92.53
12178;BME280;6152;48.728;9.256;2023-02-28T09:55:19;97800.00;;;0.94;87.72
12178;BME280;6152;48.728;9.256;2023-02-28T09:57:46;97799.00;;;1.07;89.25
12178;BME280;6152;48.728;9.256;2023-02-28T10:00:24;97792.88;;;1.19;87.15
12178;BME280;6152;48.728;9.256;2023-02-28T10:02:58;97791.13;;;1.24;85.29
12178;BME280;6152;48.728;9.256;2023-02-28T10:05:43;97796.06;;;1.37;82.59
12178;BME280;6152;48.728;9.256;2023-02-28T10:08:36;97791.13;;;1.22;85.00
12178;BME280;6152;48.728;9.256;2023-02-28T10:11:09;97798.69;;;1.31;82.65
12178;BME280;6152;48.728;9.256;2023-02-28T10:16:16;97801.00;;;1.49;81.85
12178;BME280;6152;48.728;9.256;2023-02-28T10:18:54;97807.75;;;1.57;82.29
12178;BME280;6152;48.728;9.256;2023-02-28T10:21:37;97811.25;;;1.51;79.23
12178;BME280;6152;48.728;9.256;2023-02-28T10:24:19;97810.97;;;1.71;80.39
12178;BME280;6152;48.728;9.256;2023-02-28T10:26:48;97809.59;;;2.05;77.75
12178;BME280;6152;48.728;9.256;2023-02-28T10:29:14;97813.16;;;2.47;77.73
12178;BME280;6152;48.728;9.256;2023-02-28T10:31:41;97814.44;;;2.71;71.48
12178;BME280;6152;48.728;9.256;2023-02-28T10:34:08;97807.66;;;2.68;69.10
12178;BME280;6152;48.728;9.256;2023-02-28T10:36:36;97810.28;;;2.64;69.08
12178;BME280;6152;48.728;9.256;2023-02-28T10:39:45;97806.72;;;3.15;66.69
12178;BME280;6152;48.728;9.256;2023-02-28T10:42:24;97801.91;;;4.15;62.58
12178;BME280;6152;48.728;9.256;2023-02-28T10:50:31;97795.38;;;6.67;52.48
12178;BME280;6152;48.728;9.256;2023-02-28T10:58:47;97798.38;;;5.45;53.03
12178;BME280;6152;48.728;9.256;2023-02-28T11:01:17;97798.94;;;6.38;52.40
12178;BME280;6152;48.728;9.256;2023-02-28T11:03:44;97796.66;;;7.28;50.35
12178;BME280;6152;48.728;9.256;2023-02-28T11:06:22;97794.19;;;8.77;45.24
12178;BME280;6152;48.728;9.256;2023-02-28T11:08:55;97788.50;;;9.47;43.67
12178;BME280;6152;48.728;9.256;2023-02-28T11:11:23;97792.34;;;9.76;42.40
12178;BME280;6152;48.728;9.256;2023-02-28T11:13:54;97794.31;;;10.27;42.76
12178;BME280;6152;48.728;9.256;2023-02-28T11:16:21;97793.97;;;11.67;38.83
12178;BME280;6152;48.728;9.256;2023-02-28T11:18:53;97782.59;;;13.20;36.44
12178;BME280;6152;48.728;9.256;2023-02-28T11:21:25;97771.09;;;14.06;35.36
12178;BME280;6152;48.728;9.256;2023-02-28T11:24:40;97765.75;;;14.74;33.27
12178;BME280;6152;48.728;9.256;2023-02-28T11:26:47;97759.53;;;14.49;32.25
12178;BME280;6152;48.728;9.256;2023-02-28T11:29:31;97772.25;;;12.89;34.49
12178;BME280;6152;48.728;9.256;2023-02-28T11:32:13;97775.28;;;12.37;34.26
12178;BME280;6152;48.728;9.256;2023-02-28T11:34:42;97780.91;;;11.03;36.15
12178;BME280;6152;48.728;9.256;2023-02-28T11:37:18;97771.78;;;10.26;37.62
12178;BME280;6152;48.728;9.256;2023-02-28T11:39:45;97759.44;;;10.12;38.30
12178;BME280;6152;48.728;9.256;2023-02-28T11:45:30;97756.22;;;12.05;36.16
12178;BME280;6152;48.728;9.256;2023-02-28T11:50:49;97747.72;;;13.62;32.96
12178;BME280;6152;48.728;9.256;2023-02-28T11:56:41;97758.03;;;15.60;29.87
12178;BME280;6152;48.728;9.256;2023-02-28T12:10:26;97729.59;;;17.30;26.51
12178;BME280;6152;48.728;9.256;2023-02-28T12:13:12;97726.81;;;17.32;26.23
12178;BME280;6152;48.728;9.256;2023-02-28T12:21:26;97725.88;;;16.64;26.91
12178;BME280;6152;48.728;9.256;2023-02-28T12:23:59;97726.91;;;16.97;27.42
12178;BME280;6152;48.728;9.256;2023-02-28T12:26:38;97722.69;;;18.05;25.99
12178;BME280;6152;48.728;9.256;2023-02-28T12:29:16;97725.94;;;18.41;25.48
12178;BME280;6152;48.728;9.256;2023-02-28T12:31:56;97716.41;;;18.49;24.96
12178;BME280;6152;48.728;9.256;2023-02-28T12:34:33;97726.47;;;19.17;24.86
12178;BME280;6152;48.728;9.256;2023-02-28T12:37:09;97721.03;;;18.89;24.39
12178;BME280;6152;48.728;9.256;2023-02-28T12:39:41;97713.16;;;19.19;24.84
12178;BME280;6152;48.728;9.256;2023-02-28T12:42:27;97709.41;;;19.92;23.99
12178;BME280;6152;48.728;9.256;2023-02-28T12:45:15;97707.91;;;20.76;23.45
12178;BME280;6152;48.728;9.256;2023-02-28T12:47:45;97703.91;;;21.64;22.96
12178;BME280;6152;48.728;9.256;2023-02-28T12:50:13;97696.22;;;22.16;22.45
12178;BME280;6152;48.728;9.256;2023-02-28T12:52:56;97691.50;;;21.28;21.07
12178;BME280;6152;48.728;9.256;2023-02-28T12:55:40;97689.16;;;21.25;21.96
12178;BME280;6152;48.728;9.256;2023-02-28T13:01:04;97696.59;;;19.17;23.29
12178;BME280;6152;48.728;9.256;2023-02-28T13:09:12;97696.81;;;13.94;29.76
12178;BME280;6152;48.728;9.256;2023-02-28T13:12:14;97699.66;;;12.06;32.24
12178;BME280;6152;48.728;9.256;2023-02-28T13:14:42;97695.69;;;11.05;34.01
12178;BME280;6152;48.728;9.256;2023-02-28T13:25:02;97686.47;;;8.69;38.76
12178;BME280;6152;48.728;9.256;2023-02-28T13:27:39;97698.94;;;8.40;39.59
12178;BME280;6152;48.728;9.256;2023-02-28T13:31:10;97686.50;;;8.06;40.05
12178;BME280;6152;48.728;9.256;2023-02-28T13:33:32;97694.53;;;7.35;41.20
12178;BME280;6152;48.728;9.256;2023-02-28T13:38:41;97698.97;;;6.64;43.75
12178;BME280;6152;48.728;9.256;2023-02-28T13:41:43;97690.06;;;6.47;44.35
12178;BME280;6152;48.728;9.256;2023-02-28T13:44:18;97698.81;;;6.43;44.10
12178;BME280;6152;48.728;9.256;2023-02-28T13:52:12;97696.59;;;6.08;47.03
12178;BME280;6152;48.728;9.256;2023-02-28T13:54:55;97698.31;;;6.07;45.95
12178;BME280;6152;48.728;9.256;2023-02-28T14:05:38;97690.38;;;5.87;47.87
12178;BME280;6152;48.728;9.256;2023-02-28T14:08:18;97690.25;;;5.92;47.82
12178;BME280;6152;48.728;9.256;2023-02-28T14:11:02;97686.47;;;6.02;46.92
12178;BME280;6152;48.728;9.256;2023-02-28T14:13:46;97693.50;;;5.97;47.32
12178;BME280;6152;48.728;9.256;2023-02-28T14:16:45;97698.88;;;5.91;47.38
12178;BME280;6152;48.728;9.256;2023-02-28T14:19:24;97701.59;;;5.58;47.80
12178;BME280;6152;48.728;9.256;2023-02-28T14:29:58;97709.75;;;5.73;49.05
12178;BME280;6152;48.728;9.256;2023-02-28T14:35:39;97696.72;;;5.77;48.76
12178;BME280;6152;48.728;9.256;2023-02-28T14:38:13;97699.16;;;5.82;48.63
12178;BME280;6152;48.728;9.256;2023-02-28T14:40:40;97700.53;;;5.66;48.79
12178;BME280;6152;48.728;9.256;2023-02-28T14:43:20;97694.19;;;5.76;48.13
12178;BME280;6152;48.728;9.256;2023-02-28T14:45:50;97695.53;;;5.61;48.96
12178;BME280;6152;48.728;9.256;2023-02-28T14:48:18;97712.84;;;5.57;48.84
12178;BME280;6152;48.728;9.256;2023-02-28T14:50:59;97703.59;;;5.50;49.07
12178;BME280;6152;48.728;9.256;2023-02-28T14:53:30;97705.34;;;5.50;48.46
12178;BME280;6152;48.728;9.256;2023-02-28T14:56:00;97705.53;;;5.44;49.25
12178;BME280;6152;48.728;9.256;2023-02-28T14:58:32;97710.91;;;5.36;49.79
12178;BME280;6152;48.728;9.256;2023-02-28T15:01:01;97710.06;;;5.36;49.87
12178;BME280;6152;48.728;9.256;2023-02-28T15:03:32;97706.53;;;5.38;49.79
12178;BME280;6152;48.728;9.256;2023-02-28T15:06:01;97716.78;;;5.41;49.28
12178;BME280;6152;48.728;9.256;2023-02-28T15:08:28;97716.00;;;5.39;49.50
12178;BME280;6152;48.728;9.256;2023-02-28T15:10:59;97718.66;;;5.36;50.05
12178;BME280;6152;48.728;9.256;2023-02-28T15:13:36;97716.44;;;5.24;49.98
12178;BME280;6152;48.728;9.256;2023-02-28T15:16:04;97714.34;;;5.07;50.94
12178;BME280;6152;48.728;9.256;2023-02-28T15:18:42;97723.69;;;5.12;50.66